Time;durP1;ratioP1;P1;durP2;ratioP2;P2;SDS_P1;SDS_P2;PMS_P1;PMS_P2;Temp;Humidity;BMP_temperature;BMP_pressure;BME280_temperature;BME280_humidity;BME280_pressure;Samples;Min_cycle;Max_cycle;Signal;HPM_P1;HPM_P2
2021/07/19 00:02:23;;;;;;;12.87;11.67;;;23.50;86.90;;;;;;5047456;28;20242;-73
2021/07/19 00:04:50;;;;;;;16.87;12.67;;;23.60;87.20;;;;;;5043720;28;20211;-73
2021/07/19 00:07:18;;;;;;;14.83;13.23;;;23.60;87.60;;;;;;5047689;28;20271;-73
2021/07/19 00:09:45;;;;;;;13.33;12.10;;;23.60;88.10;;;;;;5042517;28;20218;-73
2021/07/19 00:12:15;;;;;;;13.70;12.33;;;23.50;88.40;;;;;;5044183;28;20211;-74
2021/07/19 00:14:44;;;;;;;12.63;11.33;;;23.60;88.50;;;;;;5046700;28;20226;-73
2021/07/19 00:17:12;;;;;;;19.53;12.93;;;23.50;88.40;;;;;;5043549;28;20215;-73
2021/07/19 00:19:39;;;;;;;13.40;11.50;;;23.50;88.60;;;;;;5044382;28;20222;-73
2021/07/19 00:22:07;;;;;;;15.43;11.27;;;23.50;88.60;;;;;;5042672;28;20299;-73
2021/07/19 00:24:34;;;;;;;13.33;11.67;;;23.50;88.50;;;;;;5042646;28;20210;-73
2021/07/19 00:27:01;;;;;;;14.83;11.50;;;23.40;88.60;;;;;;5043986;28;20219;-73
2021/07/19 00:29:29;;;;;;;14.30;12.90;;;23.40;88.90;;;;;;5046813;28;20220;-73
2021/07/19 00:31:56;;;;;;;15.90;12.70;;;23.40;89.40;;;;;;5043413;28;20288;-73
2021/07/19 00:34:23;;;;;;;12.93;11.67;;;23.40;89.80;;;;;;5046862;28;20217;-73
2021/07/19 00:36:54;;;;;;;12.77;11.47;;;23.40;90.00;;;;;;5043211;28;20578;-73
2021/07/19 00:39:22;;;;;;;12.80;11.60;;;23.40;90.00;;;;;;5039954;28;20219;-73
2021/07/19 00:41:50;;;;;;;14.40;11.43;;;23.40;90.00;;;;;;5043084;28;20299;-73
2021/07/19 00:44:20;;;;;;;15.10;11.30;;;23.40;89.90;;;;;;5049876;28;20253;-74
2021/07/19 00:46:51;;;;;;;13.60;11.47;;;23.40;89.90;;;;;;5043928;28;20674;-73
2021/07/19 00:49:21;;;;;;;12.37;11.17;;;23.30;90.00;;;;;;5045668;28;20552;-73
2021/07/19 00:51:49;;;;;;;13.40;12.03;;;23.30;90.40;;;;;;5047160;28;20214;-74
2021/07/19 00:54:19;;;;;;;12.70;11.50;;;23.30;90.10;;;;;;5043101;28;20678;-74
2021/07/19 00:56:47;;;;;;;13.20;11.97;;;23.30;90.10;;;;;;5045205;28;20229;-74
2021/07/19 00:59:15;;;;;;;18.53;11.33;;;23.30;90.00;;;;;;5044528;28;20277;-74
2021/07/19 01:01:45;;;;;;;12.73;11.43;;;23.30;89.70;;;;;;5044972;28;20268;-74
2021/07/19 01:04:15;;;;;;;13.67;12.20;;;23.30;89.30;;;;;;5042751;28;20269;-73
2021/07/19 01:06:43;;;;;;;13.50;11.83;;;23.40;89.00;;;;;;5044473;28;20678;-73
2021/07/19 01:09:11;;;;;;;17.43;12.27;;;23.40;88.60;;;;;;5044393;28;20229;-73
2021/07/19 01:11:38;;;;;;;13.00;11.50;;;23.40;87.80;;;;;;5042440;28;20265;-73
2021/07/19 01:14:05;;;;;;;14.13;12.20;;;23.40;86.80;;;;;;5044401;28;20220;-73
2021/07/19 01:16:32;;;;;;;15.53;13.70;;;23.50;87.80;;;;;;5046144;28;20655;-73
2021/07/19 01:19:00;;;;;;;17.17;13.27;;;23.50;87.60;;;;;;5044611;28;20218;-73
2021/07/19 01:22:06;;;;;;;14.23;12.70;;;23.50;88.10;;;;;;5043886;28;20243;-74
2021/07/19 01:24:45;;;;;;;14.90;13.50;;;23.50;88.40;;;;;;5041705;28;20293;-73
2021/07/19 01:27:40;;;;;;;14.30;12.90;;;23.50;88.70;;;;;;5038721;28;20599;-73
2021/07/19 01:30:07;;;;;;;14.37;12.87;;;23.50;89.10;;;;;;5046093;28;20223;-73
2021/07/19 01:32:38;;;;;;;14.97;13.47;;;23.50;89.20;;;;;;5042516;28;20219;-73
2021/07/19 01:35:07;;;;;;;15.23;13.73;;;23.50;89.40;;;;;;5038623;28;20218;-73
2021/07/19 01:37:37;;;;;;;14.87;13.47;;;23.40;89.30;;;;;;5038272;28;20251;-73
2021/07/19 01:40:06;;;;;;;14.53;13.03;;;23.40;89.30;;;;;;5036829;28;20219;-73
2021/07/19 01:42:36;;;;;;;14.07;12.57;;;23.40;89.30;;;;;;5045490;28;20669;-73
2021/07/19 01:45:08;;;;;;;15.60;12.33;;;23.40;89.30;;;;;;5043035;28;20644;-74
2021/07/19 01:47:36;;;;;;;14.97;13.50;;;23.40;89.40;;;;;;5044515;28;20623;-73
2021/07/19 01:50:06;;;;;;;14.23;12.93;;;23.40;89.40;;;;;;5042992;28;20223;-73
2021/07/19 01:52:33;;;;;;;14.67;13.27;;;23.40;89.40;;;;;;5044260;28;20533;-74
2021/07/19 01:55:00;;;;;;;15.20;13.63;;;23.40;89.60;;;;;;5038032;28;20219;-74
2021/07/19 01:57:28;;;;;;;15.83;14.13;;;23.40;89.80;;;;;;5041259;28;20218;-73
2021/07/19 01:59:58;;;;;;;17.10;13.43;;;23.40;89.90;;;;;;5045635;28;20230;-73
2021/07/19 02:02:26;;;;;;;17.13;15.33;;;23.40;90.00;;;;;;5044278;28;20300;-73
2021/07/19 02:04:53;;;;;;;17.13;14.50;;;23.40;90.00;;;;;;5039644;28;20211;-73
2021/07/19 02:07:24;;;;;;;15.23;13.83;;;23.40;89.90;;;;;;5042540;28;20223;-73
2021/07/19 02:09:52;;;;;;;16.33;14.60;;;23.40;89.90;;;;;;5043572;28;20218;-73
2021/07/19 02:12:20;;;;;;;14.83;13.50;;;23.40;89.70;;;;;;5042932;28;20252;-73
2021/07/19 02:14:48;;;;;;;14.87;13.57;;;23.40;89.80;;;;;;5043811;28;20268;-73
2021/07/19 02:17:17;;;;;;;14.07;12.83;;;23.40;90.00;;;;;;5041542;28;20214;-74
2021/07/19 02:19:47;;;;;;;15.00;13.50;;;23.40;89.50;;;;;;5042983;28;20242;-74
2021/07/19 02:22:14;;;;;;;14.30;12.97;;;23.30;89.40;;;;;;5042295;28;20234;-73
2021/07/19 02:24:42;;;;;;;14.13;12.80;;;23.20;89.50;;;;;;5039137;28;20640;-73
2021/07/19 02:27:09;;;;;;;17.83;12.03;;;23.20;89.50;;;;;;5043564;28;20868;-73
2021/07/19 02:29:37;;;;;;;14.70;12.67;;;23.20;88.70;;;;;;5042866;28;20222;-74
2021/07/19 02:32:04;;;;;;;13.83;12.43;;;23.20;87.90;;;;;;5043671;28;20611;-73
2021/07/19 02:34:32;;;;;;;13.77;12.47;;;23.30;87.40;;;;;;5043487;28;20721;-74
2021/07/19 02:36:59;;;;;;;14.57;13.17;;;23.30;86.70;;;;;;5042238;28;20227;-74
2021/07/19 02:39:30;;;;;;;18.73;14.53;;;23.40;86.60;;;;;;5043899;28;20202;-74
2021/07/19 02:42:00;;;;;;;15.93;14.43;;;23.40;86.60;;;;;;5041381;28;20296;-74
2021/07/19 02:44:27;;;;;;;17.40;15.60;;;23.50;87.00;;;;;;5044753;28;20219;-74
2021/07/19 02:46:55;;;;;;;19.07;15.80;;;23.50;87.40;;;;;;5043327;28;20280;-73
2021/07/19 02:49:24;;;;;;;18.10;16.20;;;23.50;87.90;;;;;;5040633;28;20721;-74
2021/07/19 02:51:54;;;;;;;18.73;16.77;;;23.50;88.20;;;;;;5041204;28;20599;-73
2021/07/19 02:54:24;;;;;;;17.70;15.97;;;23.50;88.50;;;;;;5042086;28;20223;-73
2021/07/19 02:56:53;;;;;;;19.47;15.33;;;23.50;88.70;;;;;;5042306;28;20215;-73
2021/07/19 02:59:22;;;;;;;18.27;16.43;;;23.50;88.80;;;;;;5043772;28;20226;-74
2021/07/19 03:01:52;;;;;;;17.83;16.07;;;23.40;88.70;;;;;;5042053;28;20242;-73
2021/07/19 03:04:21;;;;;;;17.43;15.47;;;23.40;88.70;;;;;;5043822;28;20248;-74
2021/07/19 03:06:50;;;;;;;18.00;16.33;;;23.40;88.30;;;;;;5041787;28;20219;-73
2021/07/19 03:09:19;;;;;;;18.97;16.60;;;23.40;87.80;;;;;;5047055;28;20222;-73
2021/07/19 03:11:49;;;;;;;21.10;17.63;;;23.40;87.60;;;;;;5040661;28;20257;-73
2021/07/19 03:14:21;;;;;;;20.33;17.53;;;23.40;87.30;;;;;;5041443;28;20219;-73
2021/07/19 03:16:51;;;;;;;20.13;18.07;;;23.40;86.90;;;;;;5037115;28;20214;-73
2021/07/19 03:19:20;;;;;;;20.07;17.53;;;23.40;87.00;;;;;;5042464;28;20829;-73
2021/07/19 03:21:48;;;;;;;23.77;18.80;;;23.40;87.30;;;;;;5044669;28;20246;-73
2021/07/19 03:24:17;;;;;;;20.53;18.53;;;23.40;87.70;;;;;;5044336;28;20218;-74
2021/07/19 03:26:45;;;;;;;20.00;18.10;;;23.40;87.90;;;;;;5048270;28;20291;-73
2021/07/19 03:29:12;;;;;;;20.63;18.53;;;23.40;88.20;;;;;;5044776;28;20211;-73
2021/07/19 03:31:41;;;;;;;20.20;18.13;;;23.40;88.70;;;;;;5044745;28;20727;-73
2021/07/19 03:34:11;;;;;;;22.37;20.07;;;23.40;89.00;;;;;;5048181;28;20268;-73
2021/07/19 03:36:38;;;;;;;20.93;18.43;;;23.40;89.20;;;;;;5044537;28;20218;-73
2021/07/19 03:39:07;;;;;;;23.13;20.70;;;23.30;89.00;;;;;;5044565;28;20631;-74
2021/07/19 03:41:34;;;;;;;23.03;20.67;;;23.40;89.00;;;;;;5047810;28;20564;-73
2021/07/19 03:44:03;;;;;;;22.07;19.77;;;23.30;88.90;;;;;;5045174;28;20214;-73
2021/07/19 03:46:30;;;;;;;22.20;20.03;;;23.40;89.20;;;;;;5047991;28;20211;-73
2021/07/19 03:48:59;;;;;;;23.07;20.67;;;23.30;89.30;;;;;;5044575;28;20533;-73
2021/07/19 03:51:29;;;;;;;22.63;19.60;;;23.30;89.20;;;;;;5042270;28;20681;-73
2021/07/19 03:53:56;;;;;;;21.67;19.27;;;23.30;89.10;;;;;;5044154;28;20249;-73
2021/07/19 03:56:26;;;;;;;30.17;20.80;;;23.30;89.20;;;;;;5044181;28;20226;-73
2021/07/19 03:58:56;;;;;;;21.13;18.97;;;23.30;89.30;;;;;;5044204;28;20725;-73
2021/07/19 04:01:25;;;;;;;23.00;20.70;;;23.30;89.60;;;;;;5045042;28;20292;-73
2021/07/19 04:03:54;;;;;;;21.53;19.50;;;23.30;89.80;;;;;;5046669;28;20261;-73
2021/07/19 04:06:23;;;;;;;23.03;20.63;;;23.30;89.90;;;;;;5045421;28;20207;-73
2021/07/19 04:08:50;;;;;;;23.67;21.33;;;23.30;90.00;;;;;;5046229;28;20210;-73
2021/07/19 04:11:19;;;;;;;27.43;21.73;;;23.30;89.90;;;;;;5044917;28;20211;-73
2021/07/19 04:13:47;;;;;;;24.87;22.37;;;23.30;89.80;;;;;;5045658;28;20212;-74
2021/07/19 04:16:18;;;;;;;24.67;22.23;;;23.40;89.70;;;;;;5045223;28;20245;-73
2021/07/19 04:18:50;;;;;;;29.97;23.60;;;23.40;89.70;;;;;;5045891;28;20585;-73
2021/07/19 04:21:18;;;;;;;24.93;21.17;;;23.40;89.60;;;;;;5043614;28;20214;-73
2021/07/19 04:23:46;;;;;;;32.80;24.00;;;23.40;89.60;;;;;;5045015;28;20210;-73
2021/07/19 04:26:14;;;;;;;26.23;23.63;;;23.40;89.50;;;;;;5039799;28;20221;-73
2021/07/19 04:28:42;;;;;;;22.97;20.63;;;23.40;89.60;;;;;;5045811;28;20219;-74
2021/07/19 04:31:12;;;;;;;24.20;21.70;;;23.40;89.80;;;;;;5044880;28;20267;-73
2021/07/19 04:33:43;;;;;;;24.00;21.67;;;23.40;89.90;;;;;;5045816;28;20225;-73
2021/07/19 04:36:10;;;;;;;23.23;20.93;;;23.40;89.90;;;;;;5044436;28;20264;-73
2021/07/19 04:38:38;;;;;;;22.13;19.80;;;23.40;89.90;;;;;;5045763;28;20243;-73
2021/07/19 04:41:05;;;;;;;23.30;20.80;;;23.40;89.80;;;;;;5042183;28;20249;-73
2021/07/19 04:43:32;;;;;;;22.77;20.37;;;23.40;89.60;;;;;;5046902;28;20226;-73
2021/07/19 04:45:59;;;;;;;22.80;20.20;;;23.40;89.60;;;;;;5044660;28;20211;-73
2021/07/19 04:48:26;;;;;;;21.20;19.20;;;23.50;89.80;;;;;;5045463;28;20585;-73
2021/07/19 04:50:52;;;;;;;22.33;19.87;;;23.50;89.70;;;;;;5045044;28;20254;-73
2021/07/19 04:53:20;;;;;;;20.57;18.33;;;23.60;89.50;;;;;;5044718;28;20218;-73
2021/07/19 04:55:51;;;;;;;21.63;19.63;;;23.60;89.20;;;;;;5042934;28;20218;-73
2021/07/19 04:58:21;;;;;;;21.43;19.23;;;23.70;88.90;;;;;;5043222;28;20218;-73
2021/07/19 05:00:52;;;;;;;21.33;19.07;;;23.70;88.50;;;;;;5045247;28;20210;-73
2021/07/19 05:03:24;;;;;;;20.67;18.53;;;23.80;88.60;;;;;;5043794;28;20235;-74
2021/07/19 05:05:54;;;;;;;19.53;17.63;;;23.90;88.50;;;;;;5046208;28;20214;-73
2021/07/19 05:08:23;;;;;;;19.77;17.70;;;24.00;88.60;;;;;;5043065;28;20211;-73
2021/07/19 05:10:50;;;;;;;19.37;17.37;;;24.10;88.40;;;;;;5042373;28;20530;-73
2021/07/19 05:13:20;;;;;;;19.57;17.70;;;24.20;88.00;;;;;;5046248;28;20266;-73
2021/07/19 05:15:48;;;;;;;19.77;17.80;;;24.40;87.50;;;;;;5046616;28;20584;-74
2021/07/19 05:18:18;;;;;;;20.63;17.77;;;24.60;86.80;;;;;;5042861;28;20292;-73
2021/07/19 05:20:47;;;;;;;23.30;18.97;;;24.60;86.40;;;;;;5038727;28;20297;-73
2021/07/19 05:23:24;;;;;;;20.33;18.23;;;24.80;86.20;;;;;;5038806;28;20282;-74
2021/07/19 05:25:51;;;;;;;21.23;19.07;;;24.90;85.40;;;;;;5043349;28;20236;-74
2021/07/19 05:28:19;;;;;;;19.33;17.50;;;25.10;84.70;;;;;;5045186;28;20245;-73
2021/07/19 05:30:51;;;;;;;19.10;17.27;;;25.20;84.30;;;;;;5043359;28;20211;-73
2021/07/19 05:33:20;;;;;;;19.73;17.83;;;25.20;83.90;;;;;;5042819;28;20646;-73
2021/07/19 05:35:48;;;;;;;23.93;19.00;;;25.20;83.40;;;;;;5045931;28;20215;-73
2021/07/19 05:38:15;;;;;;;21.00;18.50;;;25.20;83.10;;;;;;5044127;28;20241;-73
2021/07/19 05:40:43;;;;;;;19.63;17.60;;;25.10;83.60;;;;;;5037924;28;20594;-73
2021/07/19 05:43:10;;;;;;;20.97;18.93;;;25.20;83.80;;;;;;5043268;28;20239;-75
2021/07/19 05:45:38;;;;;;;22.20;18.47;;;25.40;83.50;;;;;;5044544;28;20225;-74
2021/07/19 05:48:06;;;;;;;21.93;19.63;;;25.50;82.90;;;;;;5043267;28;20272;-73
2021/07/19 05:50:33;;;;;;;20.80;18.70;;;25.80;82.30;;;;;;5044454;28;20621;-73
2021/07/19 05:53:00;;;;;;;20.63;18.67;;;25.90;81.70;;;;;;5043085;28;20215;-73
2021/07/19 05:55:29;;;;;;;20.80;18.90;;;26.10;81.10;;;;;;5037590;28;20698;-74
2021/07/19 05:58:01;;;;;;;19.97;17.80;;;26.40;80.50;;;;;;5044728;28;20226;-74
2021/07/19 06:00:29;;;;;;;19.77;17.77;;;26.60;80.00;;;;;;5043596;28;20295;-74
2021/07/19 06:02:56;;;;;;;21.50;17.90;;;26.80;79.20;;;;;;5040662;28;20691;-74
2021/07/19 06:05:23;;;;;;;21.57;19.47;;;26.90;78.40;;;;;;5043255;28;20621;-74
2021/07/19 06:07:50;;;;;;;20.67;18.53;;;27.00;78.10;;;;;;5044280;28;20705;-74
2021/07/19 06:10:18;;;;;;;24.57;19.77;;;27.10;77.60;;;;;;5037830;28;20697;-74
2021/07/19 06:12:45;;;;;;;22.67;18.03;;;27.20;77.30;;;;;;5045280;28;20229;-74
2021/07/19 06:15:13;;;;;;;19.50;17.70;;;27.30;76.60;;;;;;5043444;28;20210;-74
2021/07/19 06:17:41;;;;;;;20.37;18.13;;;27.40;76.00;;;;;;5044190;28;20615;-74
2021/07/19 06:20:19;;;;;;;22.07;19.70;;;27.60;75.50;;;;;;5042409;28;20219;-74
2021/07/19 06:22:47;;;;;;;23.53;19.90;;;27.70;74.80;;;;;;5042566;28;20238;-74
2021/07/19 06:25:15;;;;;;;19.93;18.00;;;27.70;74.40;;;;;;5043982;28;20219;-74
2021/07/19 06:27:43;;;;;;;20.20;17.27;;;27.80;73.90;;;;;;5038072;28;20296;-74
2021/07/19 06:30:12;;;;;;;20.67;17.47;;;27.90;73.40;;;;;;5043855;28;20223;-74
2021/07/19 06:32:39;;;;;;;16.93;15.37;;;27.90;72.80;;;;;;5042430;28;20659;-74
2021/07/19 06:35:07;;;;;;;18.70;15.90;;;27.90;72.90;;;;;;5043541;28;20375;-74
2021/07/19 06:37:34;;;;;;;16.57;14.97;;;28.00;72.80;;;;;;5042243;28;20261;-74
2021/07/19 06:40:03;;;;;;;18.90;16.43;;;28.10;72.50;;;;;;5042294;28;20696;-74
2021/07/19 06:42:30;;;;;;;21.10;16.10;;;28.20;72.50;;;;;;5041602;28;20234;-74
2021/07/19 06:44:57;;;;;;;16.43;14.73;;;28.20;71.80;;;;;;5045975;28;20207;-74
2021/07/19 06:47:25;;;;;;;19.70;16.30;;;28.20;71.50;;;;;;5045778;28;20210;-74
2021/07/19 06:49:57;;;;;;;17.30;15.37;;;28.20;71.50;;;;;;5045599;28;20256;-74
2021/07/19 06:52:25;;;;;;;17.57;15.73;;;28.30;71.50;;;;;;5043570;28;20226;-74
2021/07/19 06:54:52;;;;;;;18.23;15.53;;;28.50;70.80;;;;;;5045158;28;20704;-74
2021/07/19 06:57:20;;;;;;;16.27;14.20;;;28.60;70.60;;;;;;5047396;28;20234;-74
2021/07/19 06:59:47;;;;;;;15.27;13.67;;;28.50;70.50;;;;;;5047187;28;20222;-74
2021/07/19 07:02:15;;;;;;;15.83;14.33;;;28.40;69.50;;;;;;5047177;28;20295;-74
2021/07/19 07:04:42;;;;;;;15.33;13.87;;;28.40;68.50;;;;;;5045040;28;20259;-74
2021/07/19 07:07:10;;;;;;;14.77;12.87;;;28.60;69.50;;;;;;5046875;28;20210;-74
2021/07/19 07:09:37;;;;;;;14.10;12.77;;;28.80;68.70;;;;;;5043106;28;20213;-74
2021/07/19 07:12:22;;;;;;;13.83;12.57;;;29.10;66.60;;;;;;5048416;28;20721;-74
2021/07/19 07:14:49;;;;;;;13.87;12.17;;;29.20;66.00;;;;;;5038847;28;20242;-74
2021/07/19 07:17:16;;;;;;;12.93;11.70;;;29.40;66.50;;;;;;5041173;28;20218;-74
2021/07/19 07:19:51;;;;;;;16.57;12.37;;;29.60;66.30;;;;;;5040282;28;20265;-74
2021/07/19 07:22:18;;;;;;;12.83;11.47;;;29.90;64.70;;;;;;5044251;28;20234;-74
2021/07/19 07:24:45;;;;;;;8.80;8.00;;;30.00;64.20;;;;;;5048962;28;20224;-74
2021/07/19 07:27:12;;;;;;;8.90;8.07;;;30.00;62.90;;;;;;5042725;28;20268;-74
2021/07/19 07:29:39;;;;;;;8.03;7.17;;;29.90;63.20;;;;;;5049503;28;20849;-74
2021/07/19 07:32:07;;;;;;;7.70;7.00;;;29.90;61.90;;;;;;5022931;28;20238;-74
2021/07/19 07:34:35;;;;;;;11.37;8.27;;;29.90;61.80;;;;;;5043573;28;20523;-74
2021/07/19 07:37:03;;;;;;;9.43;7.20;;;30.10;61.50;;;;;;5040784;28;20251;-74
2021/07/19 07:39:30;;;;;;;8.87;7.33;;;30.30;61.80;;;;;;5041613;28;20215;-74
2021/07/19 07:41:57;;;;;;;8.37;6.00;;;30.50;62.00;;;;;;5040633;28;20222;-74
2021/07/19 07:44:25;;;;;;;7.40;5.60;;;30.70;59.10;;;;;;5048194;28;20241;-74
2021/07/19 07:46:52;;;;;;;7.27;5.47;;;30.90;59.40;;;;;;5044177;28;20213;-74
2021/07/19 07:49:21;;;;;;;5.37;4.70;;;31.10;58.40;;;;;;5047668;28;20627;-74
2021/07/19 07:51:48;;;;;;;9.50;5.33;;;31.20;57.20;;;;;;5044614;28;20214;-74
2021/07/19 07:54:16;;;;;;;8.77;5.77;;;31.10;54.80;;;;;;5047512;28;20214;-74
2021/07/19 07:56:43;;;;;;;9.90;5.37;;;31.20;56.30;;;;;;5044618;28;20284;-74
2021/07/19 07:59:25;;;;;;;6.07;5.07;;;31.20;55.90;;;;;;5043256;28;20242;-74
2021/07/19 08:01:53;;;;;;;6.37;4.97;;;31.30;55.70;;;;;;5043396;28;20211;-74
2021/07/19 08:04:20;;;;;;;5.33;4.83;;;31.40;54.90;;;;;;5047321;28;20230;-74
2021/07/19 08:06:47;;;;;;;10.47;5.47;;;31.50;54.30;;;;;;5042154;28;20218;-74
2021/07/19 08:09:14;;;;;;;5.47;4.83;;;31.50;54.80;;;;;;5043467;28;20646;-74
2021/07/19 08:11:42;;;;;;;8.83;4.80;;;31.60;54.70;;;;;;5043308;28;20214;-74
2021/07/19 08:14:09;;;;;;;8.73;5.10;;;31.60;53.50;;;;;;5042324;28;20285;-74
2021/07/19 08:16:37;;;;;;;5.30;4.57;;;31.70;53.70;;;;;;5043661;28;20302;-74
2021/07/19 08:19:06;;;;;;;5.70;5.17;;;31.80;53.50;;;;;;5046419;28;20717;-74
2021/07/19 08:21:34;;;;;;;6.80;4.60;;;31.80;52.80;;;;;;5042606;28;20217;-74
2021/07/19 08:24:01;;;;;;;5.40;4.20;;;31.80;52.00;;;;;;5043120;28;20262;-74
2021/07/19 08:26:28;;;;;;;5.40;4.37;;;31.80;52.90;;;;;;5041778;28;20210;-74
2021/07/19 08:28:56;;;;;;;7.93;4.93;;;32.00;52.40;;;;;;5043124;28;20219;-74
2021/07/19 08:31:24;;;;;;;7.53;4.63;;;32.10;53.80;;;;;;5046664;28;20269;-74
2021/07/19 08:33:51;;;;;;;4.93;4.43;;;32.20;53.40;;;;;;5040409;28;20210;-74
2021/07/19 08:36:19;;;;;;;8.63;4.67;;;32.30;51.90;;;;;;5039211;28;20633;-74
2021/07/19 08:38:47;;;;;;;8.57;4.80;;;32.40;50.90;;;;;;5038275;28;20237;-74
2021/07/19 08:41:17;;;;;;;6.33;5.00;;;32.50;52.20;;;;;;5038989;28;20219;-74
2021/07/19 08:46:28;;;;;;;5.80;4.53;;;32.90;51.10;;;;;;5041064;28;20327;-74
2021/07/19 08:48:55;;;;;;;4.80;4.33;;;32.90;50.00;;;;;;5043773;28;20211;-74
2021/07/19 08:51:24;;;;;;;4.90;4.40;;;33.00;49.70;;;;;;5042299;28;20207;-74
2021/07/19 08:53:52;;;;;;;6.63;4.90;;;33.10;49.20;;;;;;5042609;28;20269;-74
2021/07/19 08:56:19;;;;;;;6.10;4.30;;;33.10;50.40;;;;;;5045242;28;20222;-74
2021/07/19 08:58:47;;;;;;;5.60;5.10;;;33.30;48.80;;;;;;5039256;28;20222;-74
2021/07/19 09:01:14;;;;;;;7.07;4.37;;;33.30;48.50;;;;;;5046181;28;20280;-74
2021/07/19 09:03:42;;;;;;;5.03;4.53;;;33.40;47.80;;;;;;5044760;28;20310;-74
2021/07/19 09:06:12;;;;;;;8.17;4.47;;;33.50;48.40;;;;;;5046052;28;20639;-74
2021/07/19 09:08:49;;;;;;;5.97;4.53;;;33.60;48.70;;;;;;5042608;28;20218;-75
2021/07/19 09:11:18;;;;;;;7.60;4.93;;;33.80;49.00;;;;;;5042961;28;20211;-74
2021/07/19 09:14:02;;;;;;;5.57;4.63;;;33.90;47.80;;;;;;5045880;28;20214;-74
2021/07/19 09:16:59;;;;;;;5.60;5.07;;;33.90;47.20;;;;;;5023174;28;20231;-72
2021/07/19 09:19:29;;;;;;;8.20;4.50;;;33.90;46.90;;;;;;5042710;28;20215;-72
2021/07/19 09:21:59;;;;;;;6.37;4.47;;;34.00;46.90;;;;;;5043986;28;20249;-71
2021/07/19 09:24:29;;;;;;;6.93;4.73;;;34.00;46.50;;;;;;5041883;28;20238;-71
2021/07/19 09:26:56;;;;;;;5.70;4.30;;;34.00;45.70;;;;;;5044835;28;20300;-71
2021/07/19 09:29:25;;;;;;;4.97;4.30;;;33.90;46.40;;;;;;5043928;28;20211;-71
2021/07/19 09:31:57;;;;;;;4.67;4.27;;;33.90;46.70;;;;;;5044231;28;20215;-71
2021/07/19 09:34:32;;;;;;;6.27;4.50;;;33.90;47.70;;;;;;5045334;28;20225;-71
2021/07/19 09:37:00;;;;;;;6.60;4.37;;;34.10;48.50;;;;;;5045324;28;20213;-71
2021/07/19 09:39:50;;;;;;;6.80;4.40;;;34.30;46.00;;;;;;5038253;28;20214;-71
2021/07/19 09:42:19;;;;;;;6.03;4.20;;;34.30;45.40;;;;;;5043420;28;20250;-72
2021/07/19 09:44:58;;;;;;;5.00;3.90;;;34.30;45.20;;;;;;5046059;28;20235;-72
2021/07/19 09:47:42;;;;;;;5.10;4.03;;;34.40;44.70;;;;;;5038546;28;20249;-71
2021/07/19 09:50:12;;;;;;;4.03;3.63;;;34.40;43.70;;;;;;5043423;28;20211;-71
2021/07/19 09:52:41;;;;;;;7.33;3.97;;;34.40;44.10;;;;;;5041712;28;20251;-72
2021/07/19 09:55:29;;;;;;;4.40;4.00;;;34.40;43.70;;;;;;5044646;28;20203;-71
2021/07/19 09:57:57;;;;;;;6.37;4.47;;;34.50;44.30;;;;;;5040498;28;20691;-71
2021/07/19 10:00:25;;;;;;;6.40;4.80;;;34.70;44.00;;;;;;5044342;28;20212;-71
2021/07/19 10:02:52;;;;;;;4.17;3.83;;;34.80;43.90;;;;;;5041392;28;20211;-72
2021/07/19 10:05:28;;;;;;;4.07;3.63;;;34.80;42.70;;;;;;5042748;28;20226;-71
2021/07/19 10:07:56;;;;;;;5.43;3.90;;;34.90;43.80;;;;;;5043460;28;20236;-71
2021/07/19 10:10:35;;;;;;;6.27;4.10;;;35.00;42.90;;;;;;5043824;28;20218;-71
2021/07/19 10:13:07;;;;;;;5.93;3.90;;;35.10;42.50;;;;;;5041736;28;20241;-71
2021/07/19 10:15:37;;;;;;;4.77;4.10;;;35.20;42.30;;;;;;5041597;28;20280;-71
2021/07/19 10:18:10;;;;;;;6.07;4.03;;;35.10;41.70;;;;;;5045147;28;20214;-71
2021/07/19 10:20:41;;;;;;;7.80;3.70;;;35.00;41.10;;;;;;5042505;28;20302;-72
2021/07/19 10:23:11;;;;;;;5.77;3.80;;;34.90;40.60;;;;;;5041303;28;20239;-72
2021/07/19 10:25:39;;;;;;;5.87;3.30;;;34.90;41.30;;;;;;5043177;28;20218;-72
2021/07/19 10:28:07;;;;;;;4.27;3.50;;;34.80;42.20;;;;;;5042871;28;20222;-72
2021/07/19 10:30:34;;;;;;;4.53;3.63;;;34.80;37.90;;;;;;5043195;28;20214;-71
2021/07/19 10:33:03;;;;;;;3.67;3.00;;;34.70;38.70;;;;;;5037277;28;20679;-72
2021/07/19 10:35:30;;;;;;;9.90;3.87;;;34.70;40.50;;;;;;5042760;28;20214;-72
2021/07/19 10:38:24;;;;;;;5.43;3.60;;;34.80;38.00;;;;;;5037508;28;20319;-72
2021/07/19 10:40:55;;;;;;;7.57;3.63;;;34.70;39.40;;;;;;5039637;28;20221;-72
2021/07/19 10:43:22;;;;;;;4.97;3.63;;;34.90;38.90;;;;;;5044572;28;20284;-72
2021/07/19 10:45:53;;;;;;;5.20;3.70;;;34.90;39.10;;;;;;5045136;28;20268;-72
2021/07/19 10:48:32;;;;;;;4.90;3.80;;;35.00;40.40;;;;;;5043020;28;20219;-72
2021/07/19 10:51:12;;;;;;;5.77;3.50;;;35.10;39.00;;;;;;5043992;28;20221;-73
2021/07/19 10:53:39;;;;;;;5.63;3.53;;;35.00;38.40;;;;;;5037966;28;20642;-73
2021/07/19 10:56:08;;;;;;;6.00;3.70;;;35.00;36.60;;;;;;5038143;28;20592;-72
2021/07/19 10:58:41;;;;;;;8.10;3.80;;;34.80;38.10;;;;;;5044522;28;20742;-71
2021/07/19 11:01:26;;;;;;;4.30;3.60;;;34.70;38.20;;;;;;5042457;28;20215;-73
2021/07/19 11:03:55;;;;;;;5.20;3.10;;;34.80;37.50;;;;;;5039917;28;20693;-73
2021/07/19 11:06:39;;;;;;;6.60;3.90;;;34.70;36.90;;;;;;5044642;28;20225;-72
2021/07/19 11:09:08;;;;;;;4.07;3.53;;;34.70;38.30;;;;;;5040677;28;20211;-72
2021/07/19 11:11:38;;;;;;;5.37;3.33;;;34.70;36.90;;;;;;5043403;28;20214;-73
2021/07/19 11:14:24;;;;;;;3.33;3.03;;;34.60;38.30;;;;;;5039478;28;20214;-73
2021/07/19 11:16:53;;;;;;;6.57;3.40;;;34.60;37.20;;;;;;5038309;28;20222;-73
2021/07/19 11:19:36;;;;;;;5.40;3.77;;;34.60;37.50;;;;;;5043956;28;20222;-72
2021/07/19 11:22:07;;;;;;;5.53;3.70;;;34.70;36.90;;;;;;5043562;28;20559;-73
2021/07/19 11:24:40;;;;;;;7.43;3.60;;;34.70;36.80;;;;;;5040927;28;20241;-73
2021/07/19 11:27:08;;;;;;;5.47;3.60;;;34.70;37.00;;;;;;5045267;28;20285;-73
2021/07/19 11:29:40;;;;;;;5.13;3.50;;;34.80;38.40;;;;;;5044594;28;20638;-73
2021/07/19 11:32:17;;;;;;;4.57;3.00;;;35.00;38.60;;;;;;5037431;28;20276;-73
2021/07/19 11:34:49;;;;;;;4.50;3.43;;;35.20;37.70;;;;;;5041292;28;20321;-73
2021/07/19 11:37:19;;;;;;;4.47;3.57;;;35.10;37.10;;;;;;5042809;28;20247;-73
2021/07/19 11:39:55;;;;;;;5.63;3.33;;;35.20;38.50;;;;;;5042342;28;20610;-73
2021/07/19 11:42:31;;;;;;;6.00;3.80;;;35.20;38.20;;;;;;5046931;28;20368;-73
2021/07/19 11:45:07;;;;;;;7.90;4.07;;;35.20;37.70;;;;;;5041208;28;20245;-73
2021/07/19 11:47:43;;;;;;;4.83;3.77;;;35.20;36.50;;;;;;5046706;28;20213;-73
2021/07/19 11:50:11;;;;;;;4.70;3.47;;;35.10;37.40;;;;;;5046782;28;20241;-73
2021/07/19 11:52:40;;;;;;;7.67;3.50;;;35.00;37.00;;;;;;5043726;28;20217;-73
2021/07/19 11:55:10;;;;;;;8.17;3.63;;;35.00;37.10;;;;;;5046646;28;20650;-73
2021/07/19 11:57:42;;;;;;;5.30;3.80;;;35.10;37.50;;;;;;5045109;28;20709;-73
2021/07/19 12:00:11;;;;;;;7.23;3.50;;;35.10;36.20;;;;;;5047681;28;20211;-73
2021/07/19 12:02:38;;;;;;;5.43;3.70;;;35.10;35.90;;;;;;5044477;28;20230;-74
2021/07/19 12:05:13;;;;;;;7.23;3.73;;;34.90;36.10;;;;;;5043178;28;20230;-74
2021/07/19 12:07:40;;;;;;;4.40;3.70;;;34.90;37.00;;;;;;5040279;28;20517;-73
2021/07/19 12:10:07;;;;;;;7.40;3.90;;;35.00;37.20;;;;;;5047746;28;20213;-73
2021/07/19 12:12:36;;;;;;;5.03;3.60;;;35.10;37.80;;;;;;5036227;28;20214;-73
2021/07/19 12:15:04;;;;;;;3.40;3.10;;;35.10;36.50;;;;;;5043824;28;20564;-73
2021/07/19 12:17:37;;;;;;;5.77;3.20;;;35.10;37.10;;;;;;5040037;28;20271;-74
2021/07/19 12:20:05;;;;;;;7.70;3.20;;;35.20;36.90;;;;;;5041407;28;20537;-72
2021/07/19 12:22:32;;;;;;;4.30;2.93;;;35.40;37.20;;;;;;5045955;28;20262;-74
2021/07/19 12:24:59;;;;;;;5.80;3.13;;;35.50;35.20;;;;;;5044277;28;20230;-74
2021/07/19 12:27:26;;;;;;;8.63;3.53;;;35.40;34.90;;;;;;5047305;28;20276;-73
2021/07/19 12:29:54;;;;;;;4.57;3.47;;;35.30;36.10;;;;;;5043714;28;20237;-74
2021/07/19 12:32:21;;;;;;;5.17;3.60;;;35.10;35.30;;;;;;5043468;28;20215;-74
2021/07/19 12:34:48;;;;;;;5.30;3.43;;;34.90;35.00;;;;;;5039893;28;20519;-73
2021/07/19 12:37:19;;;;;;;5.43;3.20;;;34.80;35.50;;;;;;5043625;28;20605;-73
2021/07/19 12:39:51;;;;;;;7.57;3.20;;;34.80;35.80;;;;;;5040143;28;20218;-73
2021/07/19 12:42:23;;;;;;;5.70;3.73;;;34.80;35.80;;;;;;5046580;28;20218;-73
2021/07/19 12:44:52;;;;;;;4.13;3.13;;;34.70;34.90;;;;;;5047020;28;20570;-73
2021/07/19 12:47:21;;;;;;;4.67;3.33;;;34.60;35.40;;;;;;5047307;28;20293;-74
2021/07/19 12:49:48;;;;;;;4.70;3.63;;;34.60;36.20;;;;;;5044345;28;20215;-73
2021/07/19 12:52:17;;;;;;;4.80;3.63;;;34.60;34.90;;;;;;5045570;28;20635;-73